Time;durP1;ratioP1;P1;durP2;ratioP2;P2;SDS_P1;SDS_P2;PMS_P1;PMS_P2;Temp;Humidity;BMP_temperature;BMP_pressure;BME280_temperature;BME280_humidity;BME280_pressure;Samples;Min_cycle;Max_cycle;Signal;HPM_P1;HPM_P2
2021/10/16 00:00:18;;;;;;;9.77;4.28;;;9.50;99.90;;;;;;5072148;28;20400;-76
2021/10/16 00:02:44;;;;;;;11.90;4.63;;;9.50;99.90;;;;;;5071276;28;20071;-77
2021/10/16 00:05:09;;;;;;;10.38;3.70;;;9.60;99.90;;;;;;5072427;28;20033;-76
2021/10/16 00:07:35;;;;;;;13.18;3.67;;;9.60;99.90;;;;;;5072099;28;20044;-75
2021/10/16 00:10:01;;;;;;;11.63;4.20;;;9.50;99.90;;;;;;5073364;28;20028;-76
2021/10/16 00:12:27;;;;;;;10.40;3.80;;;9.50;99.90;;;;;;5066340;28;20029;-76
2021/10/16 00:14:53;;;;;;;15.13;4.70;;;9.60;99.90;;;;;;5055107;28;20033;-75
2021/10/16 00:17:19;;;;;;;15.32;4.57;;;9.50;99.90;;;;;;5064760;28;20029;-75
2021/10/16 00:19:44;;;;;;;13.18;4.88;;;9.50;99.90;;;;;;5057764;28;20487;-77
2021/10/16 00:22:10;;;;;;;10.25;4.13;;;9.60;99.90;;;;;;5072299;28;20033;-76
2021/10/16 00:24:36;;;;;;;31.50;6.78;;;9.60;99.90;;;;;;5063681;28;20025;-76
2021/10/16 00:27:03;;;;;;;12.35;3.90;;;9.60;99.90;;;;;;5050205;28;20442;-77
2021/10/16 00:29:28;;;;;;;11.43;3.83;;;9.50;99.90;;;;;;5072133;28;20017;-77
2021/10/16 00:31:54;;;;;;;12.85;4.53;;;9.60;99.90;;;;;;5070763;28;20498;-76
2021/10/16 00:34:20;;;;;;;14.07;4.45;;;9.60;99.90;;;;;;5054100;28;20050;-76
2021/10/16 00:36:45;;;;;;;10.63;4.82;;;9.60;99.90;;;;;;5072215;28;20396;-75
2021/10/16 00:39:11;;;;;;;6.00;3.90;;;9.60;99.90;;;;;;5071822;28;20021;-76
2021/10/16 00:41:36;;;;;;;13.60;4.53;;;9.60;99.90;;;;;;5072393;28;20442;-74
2021/10/16 00:44:24;;;;;;;11.68;4.20;;;9.60;99.90;;;;;;5071141;28;20055;-73
2021/10/16 00:46:52;;;;;;;8.95;3.92;;;9.50;99.90;;;;;;5059963;28;20493;-75
2021/10/16 00:49:18;;;;;;;13.48;3.80;;;9.60;99.90;;;;;;5055232;28;20079;-76
2021/10/16 00:51:43;;;;;;;6.90;3.65;;;9.50;99.90;;;;;;5074330;28;20056;-75
2021/10/16 00:54:10;;;;;;;7.03;3.70;;;9.50;99.90;;;;;;5075141;28;20024;-75
2021/10/16 00:56:42;;;;;;;13.55;4.32;;;9.60;99.90;;;;;;5075655;28;20104;-74
2021/10/16 00:59:07;;;;;;;13.75;4.03;;;9.60;99.90;;;;;;5074801;28;20082;-76
2021/10/16 01:01:34;;;;;;;12.10;4.55;;;9.60;99.90;;;;;;5061236;28;20032;-75
2021/10/16 01:04:01;;;;;;;14.30;5.28;;;9.60;99.90;;;;;;5063739;28;20385;-75
2021/10/16 01:06:27;;;;;;;12.00;4.22;;;9.60;99.90;;;;;;5072156;28;20044;-75
2021/10/16 01:08:55;;;;;;;12.27;4.95;;;9.60;99.90;;;;;;5065045;28;20401;-77
2021/10/16 01:11:40;;;;;;;12.85;4.22;;;9.60;99.90;;;;;;5069458;28;20020;-75
2021/10/16 01:14:09;;;;;;;12.63;5.43;;;9.60;99.90;;;;;;5065463;28;20028;-75
2021/10/16 01:16:36;;;;;;;11.18;4.88;;;9.60;99.90;;;;;;5075092;28;20499;-76
2021/10/16 01:19:08;;;;;;;10.15;5.13;;;9.60;99.90;;;;;;5074704;28;20029;-76
2021/10/16 01:21:36;;;;;;;15.20;5.03;;;9.60;99.90;;;;;;5059510;28;20503;-76
2021/10/16 01:24:02;;;;;;;14.52;5.18;;;9.60;99.90;;;;;;5074861;28;20348;-76
2021/10/16 01:26:29;;;;;;;15.45;5.75;;;9.70;99.90;;;;;;5074988;28;20491;-76
2021/10/16 01:28:56;;;;;;;10.43;4.60;;;9.70;99.90;;;;;;5073862;28;20046;-76
2021/10/16 01:31:24;;;;;;;12.77;4.90;;;10.20;99.90;;;;;;5074537;28;20372;-76
2021/10/16 01:33:50;;;;;;;12.10;4.88;;;9.70;99.90;;;;;;5073135;28;20353;-76
2021/10/16 01:36:15;;;;;;;12.27;5.13;;;9.70;99.90;;;;;;5074757;28;20020;-75
2021/10/16 01:38:41;;;;;;;16.05;5.13;;;9.70;99.90;;;;;;5074856;28;20032;-76
2021/10/16 01:41:06;;;;;;;15.88;4.97;;;9.70;99.90;;;;;;5074140;28;20055;-75
2021/10/16 01:43:32;;;;;;;15.27;6.97;;;9.70;99.90;;;;;;5074514;28;20071;-77
2021/10/16 01:45:58;;;;;;;14.20;4.90;;;9.70;99.90;;;;;;5074032;28;20103;-75
2021/10/16 01:48:24;;;;;;;17.65;6.53;;;9.70;99.90;;;;;;5073219;28;20032;-77
2021/10/16 01:50:51;;;;;;;10.52;5.38;;;9.70;99.90;;;;;;5069396;28;20082;-75
2021/10/16 01:53:17;;;;;;;10.15;4.72;;;9.70;99.90;;;;;;5064637;28;20112;-76
2021/10/16 01:55:43;;;;;;;17.67;6.03;;;9.70;99.90;;;;;;5070397;28;20135;-75
2021/10/16 01:58:13;;;;;;;14.27;5.03;;;9.70;99.90;;;;;;5062506;28;20512;-76
2021/10/16 02:00:42;;;;;;;9.55;4.72;;;9.70;99.90;;;;;;5074184;28;20024;-76
2021/10/16 02:03:09;;;;;;;11.63;5.57;;;9.70;99.90;;;;;;5073093;28;20388;-75
2021/10/16 02:05:36;;;;;;;11.57;5.07;;;9.70;99.90;;;;;;5060449;28;20473;-75
2021/10/16 02:08:02;;;;;;;12.25;6.47;;;9.70;99.90;;;;;;5073838;28;20033;-75
2021/10/16 02:10:28;;;;;;;14.40;5.60;;;9.70;99.90;;;;;;5073470;28;20043;-74
2021/10/16 02:12:54;;;;;;;13.85;4.97;;;9.70;99.90;;;;;;5074116;28;20461;-75
2021/10/16 02:15:20;;;;;;;23.98;5.32;;;9.70;99.90;;;;;;5074478;28;20531;-76
2021/10/16 02:17:46;;;;;;;9.20;4.05;;;9.70;99.90;;;;;;5072968;28;20056;-76
2021/10/16 02:20:12;;;;;;;7.65;3.67;;;9.70;99.90;;;;;;5073733;28;20094;-75
2021/10/16 02:22:38;;;;;;;16.25;4.18;;;9.80;99.90;;;;;;5079269;28;20037;-76
2021/10/16 02:25:04;;;;;;;21.55;5.25;;;9.80;99.90;;;;;;5073143;28;20070;-77
2021/10/16 02:27:29;;;;;;;14.15;4.20;;;9.70;99.90;;;;;;5073827;28;20029;-76
2021/10/16 02:29:55;;;;;;;10.60;3.90;;;9.70;99.90;;;;;;5073626;28;20484;-76
2021/10/16 02:32:20;;;;;;;11.23;3.53;;;9.70;99.90;;;;;;5067130;28;20070;-74
2021/10/16 02:34:46;;;;;;;12.98;3.88;;;9.80;99.90;;;;;;5065739;28;20389;-75
2021/10/16 02:37:12;;;;;;;9.93;4.22;;;9.80;99.90;;;;;;5073017;28;20026;-74
2021/10/16 02:39:37;;;;;;;11.50;4.13;;;9.80;99.90;;;;;;5073759;28;20107;-75
2021/10/16 02:42:03;;;;;;;12.57;3.80;;;9.80;99.90;;;;;;5073231;28;20200;-76
2021/10/16 02:44:29;;;;;;;13.38;4.50;;;9.80;99.90;;;;;;5072481;28;20686;-75
2021/10/16 02:46:55;;;;;;;13.18;3.60;;;9.80;99.90;;;;;;5072805;28;20415;-75
2021/10/16 02:49:20;;;;;;;12.73;3.75;;;9.80;99.90;;;;;;5073441;28;20040;-76
2021/10/16 02:51:46;;;;;;;17.23;4.80;;;9.80;99.90;;;;;;5072555;28;20024;-76
2021/10/16 02:54:12;;;;;;;14.60;4.68;;;9.70;99.90;;;;;;5073383;28;20016;-75
2021/10/16 02:56:37;;;;;;;10.40;3.80;;;9.80;99.90;;;;;;5073195;28;20096;-75
2021/10/16 02:59:03;;;;;;;14.63;3.20;;;9.80;99.90;;;;;;5071682;28;20044;-75
2021/10/16 03:01:28;;;;;;;9.95;3.08;;;9.70;99.90;;;;;;5065355;28;20033;-76
2021/10/16 03:03:54;;;;;;;10.95;3.25;;;9.80;99.90;;;;;;5066900;28;20017;-75
2021/10/16 03:06:19;;;;;;;10.35;3.10;;;9.70;99.90;;;;;;5072602;28;20016;-76
2021/10/16 03:08:45;;;;;;;15.93;4.55;;;9.80;99.90;;;;;;5060852;28;20029;-75
2021/10/16 03:11:11;;;;;;;14.48;3.65;;;9.80;99.90;;;;;;5070870;28;20042;-74
2021/10/16 03:13:37;;;;;;;7.20;3.13;;;9.80;99.90;;;;;;5071916;28;20024;-75
2021/10/16 03:16:03;;;;;;;10.82;3.38;;;9.80;99.90;;;;;;5072554;28;20028;-75
2021/10/16 03:18:32;;;;;;;6.03;2.92;;;9.80;99.90;;;;;;5074280;28;20023;-75
2021/10/16 03:20:57;;;;;;;8.80;2.88;;;9.80;99.90;;;;;;5071674;28;20346;-75
2021/10/16 03:23:23;;;;;;;16.40;3.10;;;9.80;99.90;;;;;;5072518;28;20062;-74
2021/10/16 03:25:48;;;;;;;11.45;2.47;;;9.80;99.90;;;;;;5072342;28;20055;-76
2021/10/16 03:28:14;;;;;;;14.13;3.15;;;9.80;99.90;;;;;;5071609;28;20384;-75
2021/10/16 03:30:40;;;;;;;12.00;3.25;;;9.80;99.90;;;;;;5072616;28;20104;-75
2021/10/16 03:33:06;;;;;;;13.05;3.40;;;9.80;99.90;;;;;;5072797;28;20032;-75
2021/10/16 03:35:33;;;;;;;10.70;3.22;;;9.80;99.90;;;;;;5071802;28;20461;-74
2021/10/16 03:37:58;;;;;;;10.45;4.75;;;9.80;99.90;;;;;;5072155;28;20029;-74
2021/10/16 03:40:24;;;;;;;14.80;4.10;;;9.80;99.90;;;;;;5072134;28;20522;-75
2021/10/16 03:42:50;;;;;;;22.38;4.00;;;9.80;99.90;;;;;;5071931;28;20052;-75
2021/10/16 03:45:16;;;;;;;13.40;4.18;;;9.80;99.90;;;;;;5072004;28;20376;-76
2021/10/16 03:47:42;;;;;;;13.85;4.30;;;9.70;99.90;;;;;;5071353;28;20023;-76
2021/10/16 03:50:09;;;;;;;16.05;2.90;;;9.80;99.90;;;;;;5072456;28;20399;-77
2021/10/16 03:52:34;;;;;;;16.77;3.28;;;9.70;99.90;;;;;;5072078;28;20070;-76
2021/10/16 03:55:00;;;;;;;8.68;2.28;;;9.70;99.90;;;;;;5071264;28;20079;-74
2021/10/16 03:57:26;;;;;;;12.20;2.45;;;9.70;99.90;;;;;;5072250;28;20028;-74
2021/10/16 03:59:51;;;;;;;9.77;2.85;;;9.70;99.90;;;;;;5072409;28;20032;-75
2021/10/16 04:02:18;;;;;;;10.82;3.60;;;9.70;99.90;;;;;;5071592;28;20393;-75
2021/10/16 04:04:45;;;;;;;10.65;3.03;;;9.70;99.90;;;;;;5072801;28;20039;-75
2021/10/16 04:07:11;;;;;;;12.55;2.83;;;9.70;99.90;;;;;;5072847;28;20028;-76
2021/10/16 04:09:39;;;;;;;10.52;3.30;;;9.70;99.90;;;;;;5057798;28;20019;-74
2021/10/16 04:12:05;;;;;;;9.15;2.75;;;9.80;99.90;;;;;;5071839;28;20082;-74
2021/10/16 04:14:31;;;;;;;7.70;3.08;;;9.80;99.90;;;;;;5072521;28;20554;-74
2021/10/16 04:16:56;;;;;;;8.60;2.45;;;9.80;99.90;;;;;;5071866;28;20439;-76
2021/10/16 04:19:22;;;;;;;16.25;2.85;;;9.80;99.90;;;;;;5071803;28;20480;-76
2021/10/16 04:21:47;;;;;;;9.55;2.90;;;10.10;99.90;;;;;;5071691;28;20107;-76
2021/10/16 04:24:13;;;;;;;9.23;3.05;;;9.80;99.90;;;;;;5072197;28;20024;-75
2021/10/16 04:26:39;;;;;;;11.45;2.50;;;9.70;99.90;;;;;;5075526;28;20035;-75
2021/10/16 04:29:05;;;;;;;11.32;3.20;;;9.70;99.90;;;;;;5075411;28;20423;-75
2021/10/16 04:31:30;;;;;;;6.43;2.40;;;9.70;99.90;;;;;;5075228;28;20063;-76
2021/10/16 04:33:56;;;;;;;10.30;2.55;;;9.70;99.90;;;;;;5075412;28;20534;-76
2021/10/16 04:36:22;;;;;;;9.50;3.13;;;9.70;99.90;;;;;;5075918;28;20033;-76
2021/10/16 04:38:49;;;;;;;8.25;2.40;;;9.70;99.90;;;;;;5074401;28;20040;-74
2021/10/16 04:41:16;;;;;;;10.57;2.40;;;9.70;99.90;;;;;;5075675;28;20028;-75
2021/10/16 04:43:43;;;;;;;17.52;2.88;;;9.70;99.90;;;;;;5074774;28;20484;-74
2021/10/16 04:46:10;;;;;;;14.98;3.40;;;9.70;99.90;;;;;;5075809;28;20121;-75
2021/10/16 04:48:40;;;;;;;10.73;2.70;;;9.60;99.90;;;;;;5075367;28;20025;-75
2021/10/16 04:51:06;;;;;;;14.90;3.25;;;9.70;99.90;;;;;;5074526;28;20021;-76
2021/10/16 04:53:32;;;;;;;10.43;2.10;;;9.60;99.90;;;;;;5075623;28;20094;-75
2021/10/16 04:55:57;;;;;;;14.23;2.65;;;9.60;99.90;;;;;;5074617;28;20016;-74
2021/10/16 04:58:23;;;;;;;11.73;2.38;;;9.60;99.90;;;;;;5074633;28;20016;-75
2021/10/16 05:00:49;;;;;;;8.40;2.30;;;9.50;99.90;;;;;;5075323;28;20025;-75
2021/10/16 05:03:14;;;;;;;7.20;2.78;;;9.50;99.90;;;;;;5075585;28;20471;-76
2021/10/16 05:05:40;;;;;;;9.55;2.45;;;9.50;99.90;;;;;;5074858;28;20028;-76
2021/10/16 05:08:06;;;;;;;8.18;2.60;;;9.40;99.90;;;;;;5075522;28;20024;-76
2021/10/16 05:10:33;;;;;;;10.10;2.85;;;9.30;99.90;;;;;;5075017;28;20104;-75
2021/10/16 05:12:58;;;;;;;7.80;2.40;;;9.30;99.90;;;;;;5074284;28;20029;-75
2021/10/16 05:15:24;;;;;;;12.52;2.88;;;9.30;99.90;;;;;;5075426;28;20020;-75
2021/10/16 05:17:49;;;;;;;9.20;3.08;;;9.30;99.90;;;;;;5075360;28;20377;-75
2021/10/16 05:20:15;;;;;;;11.15;2.60;;;9.30;99.90;;;;;;5070603;28;20472;-75
2021/10/16 05:22:40;;;;;;;10.45;2.28;;;9.30;99.90;;;;;;5075046;28;20480;-75
2021/10/16 05:25:06;;;;;;;12.10;2.67;;;9.30;99.90;;;;;;5074046;28;20013;-74
2021/10/16 05:27:34;;;;;;;12.07;2.50;;;9.30;99.90;;;;;;5074376;28;20032;-76
2021/10/16 05:30:00;;;;;;;5.82;2.20;;;9.30;99.90;;;;;;5074891;28;20024;-75
2021/10/16 05:32:25;;;;;;;10.55;2.17;;;9.40;99.90;;;;;;5075017;28;20024;-76
2021/10/16 05:34:51;;;;;;;9.57;2.10;;;9.40;99.90;;;;;;5073665;28;20091;-76
2021/10/16 05:37:16;;;;;;;9.63;2.70;;;9.40;99.90;;;;;;5074407;28;20025;-75
2021/10/16 05:39:42;;;;;;;8.63;2.40;;;9.30;99.90;;;;;;5074050;28;20020;-74
2021/10/16 05:42:08;;;;;;;9.02;2.50;;;9.30;99.90;;;;;;5072245;28;20055;-74
2021/10/16 05:44:34;;;;;;;18.67;3.22;;;9.30;99.90;;;;;;5069932;28;20047;-74
2021/10/16 05:46:59;;;;;;;16.58;2.78;;;9.30;99.90;;;;;;5072611;28;20028;-74
2021/10/16 05:49:25;;;;;;;14.23;3.03;;;9.30;99.90;;;;;;5070011;28;20042;-76
2021/10/16 05:51:50;;;;;;;7.43;2.33;;;9.20;99.90;;;;;;5072168;28;20020;-77
2021/10/16 05:54:16;;;;;;;15.02;2.90;;;9.20;99.90;;;;;;5071789;28;20028;-74
2021/10/16 05:56:42;;;;;;;11.75;2.30;;;9.20;99.90;;;;;;5071474;28;20033;-76
2021/10/16 05:59:07;;;;;;;18.02;2.90;;;9.10;99.90;;;;;;5072053;28;20025;-76
2021/10/16 06:01:33;;;;;;;20.88;3.10;;;9.10;99.90;;;;;;5071408;28;20484;-77
2021/10/16 06:03:58;;;;;;;9.98;3.03;;;9.10;99.90;;;;;;5072381;28;20384;-76
2021/10/16 06:06:24;;;;;;;12.50;2.83;;;9.20;99.90;;;;;;5073117;28;20487;-75
2021/10/16 06:08:50;;;;;;;11.13;2.83;;;9.20;99.90;;;;;;5071264;28;20473;-75
2021/10/16 06:11:15;;;;;;;12.02;2.13;;;9.20;99.90;;;;;;5072500;28;20033;-76
2021/10/16 06:13:41;;;;;;;10.40;2.95;;;9.20;99.90;;;;;;5072426;28;20017;-75
2021/10/16 06:16:07;;;;;;;9.90;3.25;;;8.70;99.90;;;;;;5071860;28;20056;-75
2021/10/16 06:18:32;;;;;;;10.52;3.00;;;9.20;99.90;;;;;;5072492;28;20020;-76
2021/10/16 06:20:58;;;;;;;13.05;2.65;;;9.30;99.90;;;;;;5070805;28;20484;-75
2021/10/16 06:23:23;;;;;;;13.73;2.55;;;9.30;99.90;;;;;;5072075;28;20025;-75
2021/10/16 06:25:49;;;;;;;12.82;2.58;;;9.30;99.90;;;;;;5078131;28;19996;-75
2021/10/16 06:28:14;;;;;;;10.60;3.42;;;9.40;99.90;;;;;;5080075;28;20020;-76
2021/10/16 06:30:43;;;;;;;14.85;3.00;;;9.40;99.90;;;;;;5072610;28;20099;-75
2021/10/16 06:33:09;;;;;;;9.98;3.63;;;9.40;99.90;;;;;;5072729;28;20082;-75
2021/10/16 06:35:37;;;;;;;13.13;2.53;;;9.40;99.90;;;;;;5071212;28;20024;-76
2021/10/16 06:38:03;;;;;;;5.85;2.58;;;9.40;99.90;;;;;;5070941;28;20029;-75
2021/10/16 06:40:29;;;;;;;10.13;2.72;;;9.50;99.90;;;;;;5073275;28;20106;-76
2021/10/16 06:42:54;;;;;;;11.10;3.00;;;9.50;99.90;;;;;;5070849;28;20503;-76
2021/10/16 06:45:20;;;;;;;6.28;2.75;;;9.50;99.90;;;;;;5072564;28;20103;-77
2021/10/16 06:47:45;;;;;;;9.57;2.72;;;9.50;99.90;;;;;;5071695;28;20116;-76
2021/10/16 06:50:11;;;;;;;12.32;2.65;;;9.50;99.90;;;;;;5072195;28;20019;-76
2021/10/16 06:52:37;;;;;;;9.70;2.22;;;9.60;99.90;;;;;;5071821;28;20107;-76
2021/10/16 06:55:02;;;;;;;10.43;3.20;;;9.60;99.90;;;;;;5071206;28;20124;-76
2021/10/16 06:57:28;;;;;;;11.32;3.05;;;9.60;99.90;;;;;;5070644;28;20166;-74
2021/10/16 06:59:54;;;;;;;10.60;2.88;;;9.60;99.90;;;;;;5071787;28;20115;-76
2021/10/16 07:02:19;;;;;;;8.90;3.08;;;9.70;99.90;;;;;;5071952;28;20415;-76
2021/10/16 07:04:45;;;;;;;9.82;3.00;;;9.70;99.90;;;;;;5071341;28;20404;-76
2021/10/16 07:07:10;;;;;;;16.27;2.95;;;9.70;99.90;;;;;;5071894;28;20021;-77
2021/10/16 07:09:36;;;;;;;16.75;3.20;;;9.80;99.90;;;;;;5071882;28;20059;-77
2021/10/16 07:12:02;;;;;;;12.40;3.63;;;9.80;99.90;;;;;;5070921;28;20082;-77
2021/10/16 07:14:27;;;;;;;18.20;5.15;;;9.90;99.90;;;;;;5072052;28;20024;-78
2021/10/16 07:16:53;;;;;;;16.02;2.70;;;9.90;99.90;;;;;;5072740;28;20063;-77
2021/10/16 07:19:19;;;;;;;13.77;3.28;;;9.90;99.90;;;;;;5071699;28;20012;-77
2021/10/16 07:21:46;;;;;;;7.28;2.80;;;10.00;99.90;;;;;;5072839;28;20032;-84
2021/10/16 07:24:11;;;;;;;11.73;2.97;;;10.10;99.90;;;;;;5071741;28;20078;-86
2021/10/16 07:26:39;;;;;;;11.18;3.08;;;10.10;99.90;;;;;;5069691;28;20013;-84
2021/10/16 07:29:05;;;;;;;12.30;3.88;;;10.20;99.90;;;;;;5070362;28;20563;-84
2021/10/16 07:31:31;;;;;;;9.85;3.05;;;10.20;99.90;;;;;;5069976;28;20063;-82
2021/10/16 07:33:59;;;;;;;9.70;3.10;;;10.20;99.90;;;;;;5071478;28;20028;-82
2021/10/16 07:36:34;;;;;;;11.10;3.03;;;10.30;99.90;;;;;;5073391;28;20115;-83
2021/10/16 07:38:59;;;;;;;6.85;3.03;;;10.40;99.90;;;;;;5073192;28;20009;-82
2021/10/16 07:41:25;;;;;;;14.55;3.15;;;10.40;99.90;;;;;;5073240;28;20043;-81
2021/10/16 07:43:50;;;;;;;8.45;3.35;;;10.50;99.90;;;;;;5062438;28;20048;-82
2021/10/16 07:46:16;;;;;;;10.52;3.17;;;10.50;99.90;;;;;;5076533;28;20037;-81
2021/10/16 07:48:41;;;;;;;15.70;3.72;;;10.60;99.90;;;;;;5071853;28;20051;-82
2021/10/16 07:51:07;;;;;;;8.45;2.88;;;10.60;99.90;;;;;;5073585;28;20024;-79
2021/10/16 07:53:32;;;;;;;7.78;3.50;;;10.60;99.90;;;;;;5073202;28;20032;-80
2021/10/16 07:55:58;;;;;;;15.60;3.25;;;10.70;99.90;;;;;;5072360;28;20051;-82
2021/10/16 07:58:23;;;;;;;11.02;3.38;;;10.80;99.90;;;;;;5075261;28;20024;-83
2021/10/16 08:00:49;;;;;;;8.85;3.05;;;10.80;99.90;;;;;;5066045;28;20090;-80
2021/10/16 08:03:15;;;;;;;10.02;2.70;;;10.90;99.90;;;;;;5074523;28;20036;-79
2021/10/16 08:05:40;;;;;;;18.55;3.28;;;10.90;99.90;;;;;;5066479;28;20457;-80
2021/10/16 08:08:06;;;;;;;15.60;3.53;;;11.00;99.90;;;;;;5077321;28;20031;-81
2021/10/16 08:10:32;;;;;;;5.15;2.60;;;11.00;99.90;;;;;;5077458;28;20021;-81
2021/10/16 08:12:57;;;;;;;9.95;2.83;;;11.00;99.90;;;;;;5075503;28;20123;-80
2021/10/16 08:15:23;;;;;;;14.27;3.35;;;11.10;99.90;;;;;;5076870;28;20028;-82
2021/10/16 08:17:49;;;;;;;16.10;5.05;;;11.20;99.90;;;;;;5077739;28;20117;-82
2021/10/16 08:20:14;;;;;;;16.73;4.75;;;11.20;99.90;;;;;;5076775;28;20464;-79
2021/10/16 08:22:42;;;;;;;17.55;4.85;;;11.20;99.90;;;;;;5065881;28;20043;-71
2021/10/16 08:25:12;;;;;;;13.40;4.63;;;11.30;99.90;;;;;;5072728;28;20456;-82
2021/10/16 08:27:38;;;;;;;6.67;3.13;;;11.30;99.90;;;;;;5074651;28;20396;-80
2021/10/16 08:30:06;;;;;;;19.98;4.82;;;11.40;99.90;;;;;;5073193;28;20039;-84
2021/10/16 08:32:32;;;;;;;20.85;3.85;;;11.50;99.90;;;;;;5076242;28;20033;-83
2021/10/16 08:34:58;;;;;;;11.43;3.20;;;11.60;99.90;;;;;;5076270;28;20029;-83
2021/10/16 08:37:23;;;;;;;12.57;3.15;;;11.60;99.90;;;;;;5076520;28;20461;-82
2021/10/16 08:39:49;;;;;;;15.15;3.55;;;11.70;99.90;;;;;;5076770;28;20028;-83
2021/10/16 08:42:15;;;;;;;9.25;2.95;;;11.70;99.90;;;;;;5076725;28;20041;-83
2021/10/16 08:44:40;;;;;;;12.82;3.60;;;11.80;99.90;;;;;;5071532;28;20028;-83
2021/10/16 08:47:08;;;;;;;13.82;4.30;;;11.80;99.90;;;;;;5070548;28;20033;-82
2021/10/16 08:49:37;;;;;;;11.90;3.25;;;11.90;99.90;;;;;;5063499;28;20040;-82
2021/10/16 08:52:03;;;;;;;13.90;3.50;;;11.90;99.90;;;;;;5059787;28;20035;-79
2021/10/16 08:54:31;;;;;;;14.77;3.55;;;12.00;99.90;;;;;;5066060;28;20030;-81
2021/10/16 08:56:57;;;;;;;13.13;3.13;;;12.10;99.90;;;;;;5060204;28;20061;-80
2021/10/16 08:59:22;;;;;;;12.20;3.40;;;12.10;99.90;;;;;;5062989;28;20107;-79
2021/10/16 09:02:02;;;;;;;15.57;4.00;;;12.20;99.90;;;;;;5062719;28;20098;-80
2021/10/16 09:04:28;;;;;;;10.85;3.25;;;12.30;99.90;;;;;;5062248;28;20469;-79
2021/10/16 09:06:54;;;;;;;12.13;2.90;;;12.30;99.90;;;;;;5065155;28;20020;-79
2021/10/16 09:09:30;;;;;;;11.43;3.00;;;12.30;99.90;;;;;;5065240;28;20040;-80
2021/10/16 09:11:56;;;;;;;12.95;2.80;;;12.30;99.90;;;;;;5062090;28;20021;-80
2021/10/16 09:14:32;;;;;;;10.57;4.47;;;12.30;99.90;;;;;;5062722;28;20012;-81
2021/10/16 09:17:02;;;;;;;14.23;4.38;;;12.40;99.90;;;;;;5060788;28;20029;-80
2021/10/16 09:19:29;;;;;;;9.07;4.70;;;12.30;99.90;;;;;;5056858;28;20028;-79
2021/10/16 09:22:01;;;;;;;10.63;3.22;;;12.30;99.90;;;;;;5066111;28;20032;-79
2021/10/16 09:24:30;;;;;;;10.38;3.22;;;12.40;99.90;;;;;;5064552;28;20025;-80
2021/10/16 09:26:58;;;;;;;9.57;3.05;;;12.40;99.90;;;;;;5055577;28;20463;-78
2021/10/16 09:29:28;;;;;;;11.27;3.75;;;12.40;99.90;;;;;;5062591;28;20035;-79
2021/10/16 09:32:14;;;;;;;19.17;4.90;;;12.40;99.90;;;;;;5060787;28;20036;-79
2021/10/16 09:34:47;;;;;;;14.82;3.72;;;12.40;99.90;;;;;;5061201;28;20112;-76
2021/10/16 09:37:21;;;;;;;32.08;3.80;;;12.40;99.90;;;;;;5059939;28;20472;-77
2021/10/16 09:39:50;;;;;;;13.85;3.80;;;12.40;99.90;;;;;;5058385;28;20037;-78
2021/10/16 09:42:36;;;;;;;13.57;3.28;;;12.40;99.90;;;;;;5065262;28;20066;-77
2021/10/16 09:45:06;;;;;;;14.95;3.63;;;12.40;99.90;;;;;;5062930;28;20032;-77
2021/10/16 09:47:31;;;;;;;9.98;3.08;;;12.40;99.90;;;;;;5057703;28;20044;-78
2021/10/16 09:50:06;;;;;;;11.85;3.53;;;12.40;99.90;;;;;;5065333;28;20055;-76
2021/10/16 09:52:35;;;;;;;19.08;4.13;;;12.40;99.90;;;;;;5065275;28;20021;-79
2021/10/16 09:55:00;;;;;;;13.30;3.30;;;12.40;99.90;;;;;;5062532;28;20024;-79
2021/10/16 09:57:26;;;;;;;20.05;3.78;;;12.40;99.90;;;;;;5064636;28;20028;-77
2021/10/16 09:59:52;;;;;;;7.80;2.92;;;12.40;99.90;;;;;;5067639;28;20488;-79
2021/10/16 10:02:18;;;;;;;11.13;3.30;;;12.40;99.90;;;;;;5067933;28;20617;-79
2021/10/16 10:04:46;;;;;;;14.82;4.10;;;12.50;99.90;;;;;;5068124;28;20461;-79
2021/10/16 10:07:13;;;;;;;75.55;10.60;;;12.50;99.90;;;;;;5069156;28;20499;-78
2021/10/16 10:09:41;;;;;;;31.10;4.90;;;12.60;99.90;;;;;;5068249;28;20016;-78
2021/10/16 10:12:09;;;;;;;20.98;4.13;;;12.60;99.90;;;;;;5064839;28;20441;-77
2021/10/16 10:14:37;;;;;;;14.68;4.32;;;12.60;99.90;;;;;;5064715;28;20032;-79
2021/10/16 10:17:04;;;;;;;12.48;3.97;;;12.70;99.90;;;;;;5061917;28;20029;-78
2021/10/16 10:19:35;;;;;;;12.23;3.90;;;12.70;99.90;;;;;;5058245;28;20029;-80
2021/10/16 10:22:00;;;;;;;17.17;4.20;;;12.70;99.90;;;;;;5058904;28;20489;-79
2021/10/16 10:24:37;;;;;;;17.17;5.00;;;12.70;99.90;;;;;;5067633;28;20032;-79
2021/10/16 10:27:08;;;;;;;14.55;4.38;;;12.70;99.90;;;;;;5059344;28;20033;-78
2021/10/16 10:29:35;;;;;;;;;;;12.70;99.90;;;;;;5065608;28;20028;-79
2021/10/16 10:32:03;;;;;;;11.30;3.90;;;12.70;99.90;;;;;;5059889;28;19905;-78
2021/10/16 10:34:38;;;;;;;14.07;4.00;;;12.70;99.90;;;;;;5067316;28;20031;-78
2021/10/16 10:37:11;;;;;;;13.05;4.22;;;12.70;99.90;;;;;;5060049;28;20522;-77
2021/10/16 10:39:41;;;;;;;18.85;4.80;;;12.70;99.90;;;;;;5069640;28;20517;-78
2021/10/16 10:42:13;;;;;;;16.35;5.10;;;12.80;99.90;;;;;;5064000;28;20052;-77
2021/10/16 10:44:42;;;;;;;14.93;3.88;;;12.80;99.90;;;;;;5070981;28;20075;-78
2021/10/16 10:47:28;;;;;;;17.63;4.72;;;12.70;99.90;;;;;;5079164;28;20144;-79
2021/10/16 10:49:58;;;;;;;15.05;5.32;;;12.70;99.90;;;;;;5077257;28;20032;-76
2021/10/16 10:52:29;;;;;;;12.23;3.63;;;12.70;99.90;;;;;;5071334;28;20107;-77
2021/10/16 10:55:01;;;;;;;15.48;3.30;;;12.70;99.90;;;;;;5075924;28;20035;-76
2021/10/16 10:57:42;;;;;;;15.40;3.13;;;12.70;99.90;;;;;;5077815;28;20028;-77
2021/10/16 11:00:10;;;;;;;13.88;3.33;;;12.80;99.90;;;;;;5080148;28;20024;-80
2021/10/16 11:02:35;;;;;;;12.15;3.42;;;12.80;99.90;;;;;;5078210;28;20035;-79
2021/10/16 11:05:03;;;;;;;13.70;3.83;;;12.80;99.90;;;;;;5071990;28;20017;-77
2021/10/16 11:07:46;;;;;;;12.45;3.35;;;12.80;99.90;;;;;;5080238;28;20473;-78
2021/10/16 11:10:13;;;;;;;14.07;3.70;;;12.90;99.90;;;;;;5084544;28;20081;-79
2021/10/16 11:12:41;;;;;;;11.27;3.47;;;12.90;99.90;;;;;;5073455;28;20077;-78
2021/10/16 11:15:09;;;;;;;12.52;4.18;;;13.00;99.90;;;;;;5082488;28;20032;-76
2021/10/16 11:17:40;;;;;;;11.35;3.80;;;13.10;99.90;;;;;;5081563;28;20052;-77
2021/10/16 11:20:09;;;;;;;16.52;4.93;;;13.20;99.90;;;;;;5079323;28;20040;-77
2021/10/16 11:22:48;;;;;;;14.30;3.90;;;13.20;99.90;;;;;;5080486;28;20036;-77
2021/10/16 11:25:16;;;;;;;13.38;3.90;;;14.10;99.90;;;;;;5080183;28;20380;-78
2021/10/16 11:27:42;;;;;;;13.52;4.47;;;13.50;99.90;;;;;;5079736;28;20480;-77
2021/10/16 11:30:18;;;;;;;21.88;5.45;;;13.70;99.90;;;;;;5080668;28;20032;-77
2021/10/16 11:32:44;;;;;;;13.30;5.00;;;13.80;99.90;;;;;;5083249;28;20028;-76
2021/10/16 11:35:10;;;;;;;15.85;4.53;;;13.90;99.90;;;;;;5080454;28;20024;-77
2021/10/16 11:37:47;;;;;;;13.23;5.18;;;14.00;99.90;;;;;;5071410;28;20488;-78
2021/10/16 11:40:24;;;;;;;18.30;4.68;;;14.00;99.90;;;;;;5079839;28;20046;-77
2021/10/16 11:42:56;;;;;;;16.17;5.03;;;14.10;99.90;;;;;;5097661;28;20499;-78
2021/10/16 11:45:35;;;;;;;16.90;5.10;;;14.30;99.90;;;;;;5099223;28;20410;-77
2021/10/16 11:48:04;;;;;;;15.05;4.90;;;14.30;99.90;;;;;;5102613;28;20020;-79
2021/10/16 11:50:32;;;;;;;16.27;5.30;;;14.40;99.90;;;;;;5098485;28;20040;-78
2021/10/16 11:53:21;;;;;;;15.48;5.63;;;14.40;99.90;;;;;;5093926;28;20087;-77
2021/10/16 11:55:56;;;;;;;12.05;4.25;;;14.40;99.90;;;;;;5090280;28;20028;-78
2021/10/16 11:58:24;;;;;;;14.18;3.88;;;14.50;99.90;;;;;;5092206;28;20629;-77
2021/10/16 12:01:00;;;;;;;11.68;4.20;;;14.60;99.90;;;;;;5091443;28;20027;-77
2021/10/16 12:03:39;;;;;;;10.98;3.70;;;14.60;99.90;;;;;;5092158;28;20093;-77
2021/10/16 12:06:07;;;;;;;13.80;3.33;;;14.60;99.90;;;;;;5089177;28;20028;-77
2021/10/16 12:08:40;;;;;;;12.13;4.65;;;14.60;99.90;;;;;;5090948;28;20031;-77
2021/10/16 12:11:06;;;;;;;18.60;4.15;;;14.50;99.90;;;;;;5084612;28;20020;-78
2021/10/16 12:13:39;;;;;;;19.48;4.18;;;14.40;99.90;;;;;;5090721;28;20019;-77
2021/10/16 12:16:11;;;;;;;8.60;3.33;;;14.30;99.90;;;;;;5103352;28;20027;-77
2021/10/16 12:18:54;;;;;;;19.00;3.60;;;14.40;99.90;;;;;;5101482;28;20024;-76
2021/10/16 12:21:35;;;;;;;15.20;3.72;;;14.40;99.90;;;;;;5103102;28;20046;-77
2021/10/16 12:24:18;;;;;;;21.27;4.30;;;14.40;99.90;;;;;;5093387;28;20032;-78
2021/10/16 12:26:46;;;;;;;11.43;3.92;;;14.50;99.90;;;;;;5090554;28;20035;-77
2021/10/16 12:29:29;;;;;;;14.07;4.13;;;14.50;99.90;;;;;;5094499;28;20502;-77
2021/10/16 12:31:55;;;;;;;14.88;4.43;;;14.60;99.90;;;;;;5092449;28;20029;-79
2021/10/16 12:34:31;;;;;;;17.38;4.35;;;14.60;99.90;;;;;;5099303;28;20532;-78
2021/10/16 12:37:00;;;;;;;10.02;4.57;;;14.60;99.90;;;;;;5098553;28;20487;-76
2021/10/16 12:39:38;;;;;;;16.45;4.30;;;14.60;99.90;;;;;;5096756;28;20024;-76
2021/10/16 12:42:15;;;;;;;20.23;4.05;;;14.60;99.90;;;;;;5092202;28;20052;-76
2021/10/16 12:44:51;;;;;;;10.18;4.32;;;14.70;99.90;;;;;;5094877;28;20032;-77
2021/10/16 12:47:27;;;;;;;15.27;5.82;;;14.70;99.90;;;;;;5096819;28;20020;-76